الصفحة الرئيسية
METAR-TAF:

METAR-TAF

مطار :

Cortez, كولورادو, الولايات المتحدة

دائرة عرض: 37-18-23N, خط طول: 108-37-32W, ارتفاع: 1803 متر

مراقبة الطقس الحالي

تاريخ ووقت الإصدار 37 دقيقة قبل الساعة 20:53UTC
ريح 7 عقدة من الجنوب/الجنوب الغربي
درجة الحرارة 14°درجة مئوية
الرطوبة 28%
ضغط 1021 hPa
الرؤية: 16.1 كم
غيوم قليلة على ارتفاع 8000 قدم
غيوم مفككة على ارتفاع 10000 قدم

METAR: KCEZ 182053Z AUTO 20007KT 10SM FEW080 BKN100 14/M04 A3014 RMK AO2 SLP184 T01441044 58018

زمن: 15:30 (21:30 UTC)


TAF: مفقودة

أرصاد الطقس والتوقعات من أكثر من 4000 مطار (تقارير الطقس للمطار METAR والتنبؤ بالطقس بالمطارTAF).

المحطات المتاحة هي النقط الصفراء والحمراء على الخريطة.

حرك المؤشر فوق النقطة لمعرفة اسم المحطة.

ثم انقر لمعرفة أرصاد وتوقعات الطقس.

لتغيير الخارطة: اضغط على الأزرار الخضراء مع رمز الصليب الأسود للتكبير. على الزر الأخضر مع شرطة للتصغير، أو على الأسهم الخضراء للخرائط المجاورة.


METAR-TAF: